createdAt,value
2022-09-28T00:01:52.559Z,12.23
2022-09-28T00:04:58.023Z,12.32
2022-09-28T00:07:29.513Z,12.28
2022-09-28T00:13:07.998Z,12.26
2022-09-28T00:15:39.048Z,12.25
2022-09-28T00:18:10.208Z,12.30
2022-09-28T00:20:41.373Z,12.41
2022-09-28T00:23:12.574Z,12.43
2022-09-28T00:25:43.596Z,12.41
2022-09-28T00:28:14.726Z,12.51
2022-09-28T00:30:45.977Z,12.46
2022-09-28T00:33:17.161Z,12.48
2022-09-28T00:35:48.263Z,12.52
2022-09-28T00:38:20.444Z,12.53
2022-09-28T00:43:40.666Z,12.36
2022-09-28T00:46:19.604Z,12.24
2022-09-28T00:48:58.401Z,12.33
2022-09-28T00:51:31.602Z,12.46
2022-09-28T00:54:06.363Z,12.56
2022-09-28T00:56:38.580Z,12.48
2022-09-28T00:59:11.578Z,12.41
2022-09-28T01:01:42.740Z,12.27
2022-09-28T01:04:14.143Z,12.25
2022-09-28T01:06:47.668Z,12.18
2022-09-28T01:09:19.988Z,12.17
2022-09-28T01:11:51.715Z,12.21
2022-09-28T01:14:25.866Z,12.23
2022-09-28T01:17:06.487Z,12.29
2022-09-28T01:20:08.670Z,12.28
2022-09-28T01:23:06.745Z,12.14
2022-09-28T01:25:47.519Z,12.28
2022-09-28T01:28:20.716Z,12.35
2022-09-28T01:30:59.748Z,12.31
2022-09-28T01:33:36.825Z,12.25
2022-09-28T01:36:13.217Z,12.09
2022-09-28T01:38:48.597Z,12.00
2022-09-28T01:41:22.311Z,11.96
2022-09-28T01:43:57.813Z,11.99
2022-09-28T01:46:35.015Z,12.03
2022-09-28T01:49:11.408Z,11.95
2022-09-28T01:51:47.398Z,11.97
2022-09-28T01:54:27.930Z,11.95
2022-09-28T01:57:04.410Z,11.99
2022-09-28T01:59:38.686Z,12.02
2022-09-28T02:02:15.130Z,11.96
2022-09-28T02:04:51.054Z,12.01
2022-09-28T02:07:27.170Z,11.96
2022-09-28T02:10:02.251Z,11.94
2022-09-28T02:12:38.945Z,11.95
2022-09-28T02:15:18.479Z,11.94
2022-09-28T02:17:50.715Z,11.91
2022-09-28T02:20:25.498Z,11.95
2022-09-28T02:22:59.253Z,11.85
2022-09-28T02:25:39.761Z,11.83
2022-09-28T02:28:14.792Z,11.94
2022-09-28T02:30:47.637Z,11.99
2022-09-28T02:33:23.443Z,12.02
2022-09-28T02:35:55.076Z,11.98
2022-09-28T02:38:26.871Z,11.90
2022-09-28T02:41:10.860Z,11.86
2022-09-28T02:43:54.486Z,11.88
2022-09-28T02:46:34.184Z,11.92
2022-09-28T02:49:21.718Z,11.91
2022-09-28T02:52:15.310Z,11.90
2022-09-28T02:55:08.692Z,11.85
2022-09-28T02:57:52.437Z,11.86
2022-09-28T03:00:25.561Z,12.00
2022-09-28T03:03:10.322Z,11.96
2022-09-28T03:05:47.314Z,11.92
2022-09-28T03:08:25.978Z,11.92
2022-09-28T03:11:00.950Z,11.86
2022-09-28T03:13:33.239Z,12.01
2022-09-28T03:16:16.777Z,12.07
2022-09-28T03:18:48.444Z,11.98
2022-09-28T03:21:19.956Z,11.85
2022-09-28T03:23:50.974Z,11.68
2022-09-28T03:26:22.893Z,11.66
2022-09-28T03:28:54.043Z,11.57
2022-09-28T03:31:25.544Z,11.64
2022-09-28T03:34:00.934Z,11.65
2022-09-28T03:36:36.692Z,11.62
2022-09-28T03:39:09.138Z,11.52
2022-09-28T03:41:40.329Z,11.48
2022-09-28T03:44:11.460Z,11.46
2022-09-28T03:46:42.603Z,11.47
2022-09-28T03:49:14.221Z,11.48
2022-09-28T03:51:45.469Z,11.46
2022-09-28T03:54:17.684Z,11.51
2022-09-28T03:56:48.875Z,11.48
2022-09-28T03:59:20.440Z,11.52
2022-09-28T04:01:53.800Z,11.53
2022-09-28T04:04:25.384Z,11.43
2022-09-28T04:06:56.588Z,11.44
2022-09-28T04:09:28.107Z,11.43
2022-09-28T04:12:03.717Z,11.38
2022-09-28T04:14:35.465Z,11.22
2022-09-28T04:17:07.497Z,11.22
2022-09-28T04:19:38.647Z,11.29
2022-09-28T04:22:09.743Z,11.37
2022-09-28T04:24:43.762Z,11.32
2022-09-28T04:27:32.345Z,11.26
2022-09-28T04:30:03.555Z,11.26
2022-09-28T04:32:34.724Z,11.23
2022-09-28T04:35:06.728Z,11.15
2022-09-28T04:37:37.920Z,11.16
2022-09-28T04:40:10.763Z,11.21
2022-09-28T04:42:42.049Z,11.19
2022-09-28T04:45:14.204Z,11.20
2022-09-28T04:47:45.248Z,11.20
2022-09-28T04:50:16.484Z,11.14
2022-09-28T04:52:47.704Z,11.17
2022-09-28T04:55:20.907Z,11.16
2022-09-28T04:57:52.384Z,11.06
2022-09-28T05:00:23.740Z,10.99
2022-09-28T05:02:55.171Z,10.99
2022-09-28T05:05:26.630Z,11.11
2022-09-28T05:08:00.953Z,11.10
2022-09-28T05:10:32.462Z,11.27
2022-09-28T05:13:04.596Z,11.63
2022-09-28T05:15:37.453Z,11.87
2022-09-28T05:18:09.257Z,12.24
2022-09-28T05:20:44.742Z,12.90
2022-09-28T05:23:16.917Z,13.68
2022-09-28T05:25:48.471Z,14.43
2022-09-28T05:28:26.320Z,15.18
2022-09-28T05:31:01.720Z,15.68
2022-09-28T05:33:34.378Z,16.23
2022-09-28T05:36:06.261Z,16.87
2022-09-28T05:38:37.645Z,17.10
2022-09-28T05:41:09.469Z,17.19
2022-09-28T05:43:40.980Z,17.32
2022-09-28T05:46:12.262Z,17.49
2022-09-28T05:48:43.437Z,17.64
2022-09-28T05:51:14.652Z,17.79
2022-09-28T05:53:45.881Z,17.84
2022-09-28T05:56:17.210Z,17.87
2022-09-28T05:58:48.477Z,17.84
2022-09-28T06:01:20.152Z,17.82
2022-09-28T06:03:51.330Z,17.73
2022-09-28T06:06:22.542Z,17.95
2022-09-28T06:08:53.864Z,18.04
2022-09-28T06:11:28.136Z,18.04
2022-09-28T06:13:59.557Z,18.07
2022-09-28T06:16:31.059Z,18.31
2022-09-28T06:19:05.195Z,18.49
2022-09-28T06:21:36.617Z,18.44
2022-09-28T06:24:08.689Z,18.28
2022-09-28T06:26:40.124Z,18.04
2022-09-28T06:29:18.685Z,17.70
2022-09-28T06:31:51.647Z,17.52
2022-09-28T06:34:24.990Z,17.35
2022-09-28T06:36:56.255Z,17.26
2022-09-28T06:39:27.504Z,17.17
2022-09-28T06:41:59.207Z,16.81
2022-09-28T06:44:30.684Z,16.61
2022-09-28T06:47:01.931Z,16.42
2022-09-28T06:49:33.212Z,16.36
2022-09-28T06:52:04.738Z,16.31
2022-09-28T06:54:36.202Z,16.10
2022-09-28T06:57:07.492Z,15.88
2022-09-28T06:59:38.757Z,15.85
2022-09-28T07:02:13.081Z,15.84
2022-09-28T07:04:45.350Z,15.68
2022-09-28T07:07:16.511Z,15.57
2022-09-28T07:09:51.287Z,15.54
2022-09-28T07:12:25.741Z,15.48
2022-09-28T07:14:57.912Z,15.36
2022-09-28T07:20:25.379Z,15.45
2022-09-28T07:23:10.853Z,15.58
2022-09-28T07:25:48.117Z,15.68
2022-09-28T07:28:20.614Z,15.77
2022-09-28T07:30:51.972Z,16.02
2022-09-28T07:33:25.386Z,16.13
2022-09-28T07:35:57.037Z,16.21
2022-09-28T07:38:28.380Z,16.43
2022-09-28T07:41:21.712Z,16.63
2022-09-28T07:43:53.050Z,16.75
2022-09-28T07:46:24.390Z,16.94
2022-09-28T07:48:55.765Z,17.14
2022-09-28T07:51:27.024Z,17.41
2022-09-28T07:53:58.738Z,17.51
2022-09-28T07:56:31.232Z,17.52
2022-09-28T07:59:02.728Z,17.51
2022-09-28T08:01:33.927Z,17.50
2022-09-28T08:04:06.480Z,17.37
2022-09-28T08:06:37.662Z,17.22
2022-09-28T08:09:08.891Z,17.12
2022-09-28T08:11:40.741Z,17.22
2022-09-28T08:14:12.389Z,17.26
2022-09-28T08:16:47.615Z,17.25
2022-09-28T08:19:20.833Z,17.32
2022-09-28T08:21:52.367Z,17.31
2022-09-28T08:24:24.953Z,17.26
2022-09-28T08:26:57.332Z,17.18
2022-09-28T08:29:32.260Z,17.21
2022-09-28T08:32:06.601Z,17.32
2022-09-28T08:34:38.555Z,17.36
2022-09-28T08:37:10.458Z,17.47
2022-09-28T08:39:41.570Z,17.48
2022-09-28T08:42:31.323Z,17.49
2022-09-28T08:45:10.595Z,17.47
2022-09-28T08:48:08.806Z,17.41
2022-09-28T08:50:50.817Z,17.19
2022-09-28T08:53:38.324Z,16.99
2022-09-28T08:56:16.735Z,17.04
2022-09-28T08:58:53.454Z,17.04
2022-09-28T09:01:30.000Z,17.04
2022-09-28T09:04:01.321Z,16.99
2022-09-28T09:06:42.863Z,16.81
2022-09-28T09:09:23.079Z,16.74
2022-09-28T09:12:04.320Z,16.67
2022-09-28T09:15:01.302Z,16.60
2022-09-28T09:17:43.356Z,16.49
2022-09-28T09:20:21.740Z,16.62
2022-09-28T09:23:01.642Z,16.84
2022-09-28T09:25:42.617Z,17.01
2022-09-28T09:28:42.438Z,17.10
2022-09-28T09:31:27.512Z,17.20
2022-09-28T09:34:14.028Z,17.26
2022-09-28T09:36:59.738Z,17.30
2022-09-28T09:39:43.845Z,17.23
2022-09-28T09:42:32.044Z,17.20
2022-09-28T09:45:28.928Z,17.31
2022-09-28T09:48:03.769Z,17.31
2022-09-28T09:50:40.939Z,17.08
2022-09-28T09:53:19.883Z,16.75
2022-09-28T09:55:57.617Z,16.64
2022-09-28T09:58:35.952Z,16.55
2022-09-28T10:01:14.519Z,16.48
2022-09-28T10:03:49.599Z,16.52
2022-09-28T10:06:28.758Z,16.54
2022-09-28T10:09:05.632Z,16.45
2022-09-28T10:11:41.249Z,16.45
2022-09-28T10:14:17.845Z,16.40
2022-09-28T10:16:51.095Z,16.37
2022-09-28T10:19:30.728Z,16.37
2022-09-28T10:22:04.735Z,16.24
2022-09-28T10:24:40.216Z,16.21
2022-09-28T10:27:15.914Z,16.38
2022-09-28T10:29:55.488Z,16.51
2022-09-28T10:32:28.479Z,16.70
2022-09-28T10:35:21.900Z,16.76
2022-09-28T10:37:59.449Z,16.74
2022-09-28T10:40:41.054Z,16.62
2022-09-28T10:43:23.308Z,16.69
2022-09-28T10:46:04.980Z,16.74
2022-09-28T10:51:46.915Z,16.71
2022-09-28T10:54:20.200Z,16.62
2022-09-28T10:56:52.586Z,16.60
2022-09-28T10:59:41.010Z,16.45
2022-09-28T11:02:26.661Z,16.45
2022-09-28T11:04:59.449Z,16.49
2022-09-28T11:07:33.213Z,16.56
2022-09-28T11:10:06.019Z,16.80
2022-09-28T11:12:45.740Z,16.88
2022-09-28T11:15:22.735Z,16.75
2022-09-28T11:17:54.541Z,16.80
2022-09-28T11:20:35.773Z,16.72
2022-09-28T11:23:21.890Z,16.69
2022-09-28T11:26:07.204Z,16.69
2022-09-28T11:28:43.302Z,16.57
2022-09-28T11:31:15.238Z,16.44
2022-09-28T11:33:49.013Z,16.40
2022-09-28T11:36:32.229Z,16.53
2022-09-28T11:39:12.947Z,16.54
2022-09-28T11:41:55.799Z,16.61
2022-09-28T11:44:45.070Z,16.65
2022-09-28T11:47:39.292Z,16.58
2022-09-28T11:50:23.777Z,16.59
2022-09-28T11:53:10.413Z,16.56
2022-09-28T11:55:48.555Z,16.52
2022-09-28T11:58:27.603Z,16.50
2022-09-28T12:01:05.005Z,16.34
2022-09-28T12:03:45.269Z,16.33
2022-09-28T12:06:21.177Z,16.39
2022-09-28T12:08:56.941Z,16.33
2022-09-28T12:11:37.085Z,16.27
2022-09-28T12:14:16.717Z,16.27
2022-09-28T12:17:11.263Z,16.20
2022-09-28T12:19:48.054Z,16.17
2022-09-28T12:22:27.046Z,16.21
2022-09-28T12:25:00.761Z,16.32
2022-09-28T12:27:39.415Z,16.37
2022-09-28T12:30:17.096Z,16.52
2022-09-28T12:32:52.429Z,16.58
2022-09-28T12:35:35.351Z,16.61
2022-09-28T12:38:29.143Z,16.60
2022-09-28T12:41:10.412Z,16.46
2022-09-28T12:44:05.985Z,16.60
2022-09-28T12:46:50.818Z,16.64
2022-09-28T12:52:35.311Z,16.54
2022-09-28T12:55:29.990Z,16.58
2022-09-28T12:58:07.958Z,16.66
2022-09-28T13:00:44.525Z,16.80
2022-09-28T13:03:59.381Z,16.75
2022-09-28T13:06:42.710Z,16.70
2022-09-28T13:09:24.128Z,16.67
2022-09-28T13:12:05.599Z,16.76
2022-09-28T13:15:15.899Z,16.60
2022-09-28T13:17:54.792Z,16.50
2022-09-28T13:20:36.183Z,16.45
2022-09-28T13:23:20.089Z,16.44
2022-09-28T13:25:58.211Z,16.23
2022-09-28T13:28:31.689Z,16.13
2022-09-28T13:31:04.786Z,16.03
2022-09-28T13:33:39.288Z,16.08
2022-09-28T13:36:47.898Z,15.90
2022-09-28T13:39:49.174Z,15.75
2022-09-28T13:42:53.435Z,15.72
2022-09-28T13:45:58.901Z,15.63
2022-09-28T13:48:48.784Z,15.65
2022-09-28T13:51:43.202Z,15.64
2022-09-28T13:54:41.502Z,15.69
2022-09-28T13:57:25.620Z,15.92
2022-09-28T14:00:06.021Z,16.04
2022-09-28T14:02:42.701Z,16.15
2022-09-28T14:05:49.609Z,16.05
2022-09-28T14:08:39.963Z,15.99
2022-09-28T14:11:44.309Z,15.90
2022-09-28T14:14:50.113Z,15.89
2022-09-28T14:17:54.607Z,15.84
2022-09-28T14:20:32.086Z,15.85
2022-09-28T14:23:30.320Z,15.98
2022-09-28T14:26:19.237Z,16.04
2022-09-28T14:29:02.563Z,16.00
2022-09-28T14:31:33.860Z,16.01
2022-09-28T14:34:06.303Z,15.94
2022-09-28T14:37:01.001Z,16.01
2022-09-28T14:39:52.876Z,16.10
2022-09-28T14:42:26.463Z,16.14
2022-09-28T14:45:30.473Z,16.10
2022-09-28T14:48:15.891Z,16.11
2022-09-28T14:50:49.105Z,15.88
2022-09-28T14:53:25.557Z,15.80
2022-09-28T14:56:02.105Z,15.79
2022-09-28T14:58:33.894Z,15.89
2022-09-28T15:01:21.984Z,15.86
2022-09-28T15:03:56.794Z,15.74
2022-09-28T15:06:45.279Z,15.66
2022-09-28T15:12:21.829Z,15.66
2022-09-28T15:14:55.734Z,15.67
2022-09-28T15:17:34.607Z,15.63
2022-09-28T15:20:30.281Z,15.56
2022-09-28T15:23:02.545Z,15.52
2022-09-28T15:25:36.159Z,15.42
2022-09-28T15:28:19.836Z,15.48
2022-09-28T15:30:52.068Z,15.52
2022-09-28T15:33:46.492Z,15.36
2022-09-28T15:36:21.603Z,15.14
2022-09-28T15:38:58.558Z,15.01
2022-09-28T15:41:31.513Z,14.96
2022-09-28T15:44:33.541Z,14.91
2022-09-28T15:47:25.508Z,15.02
2022-09-28T15:50:00.841Z,15.09
2022-09-28T15:52:37.314Z,15.16
2022-09-28T15:55:24.339Z,15.13
2022-09-28T15:58:09.019Z,15.15
2022-09-28T16:00:40.513Z,15.20
2022-09-28T16:03:29.314Z,15.18
2022-09-28T16:06:12.378Z,14.97
2022-09-28T16:08:45.234Z,15.02
2022-09-28T16:11:22.104Z,14.89
2022-09-28T16:14:06.328Z,14.80
2022-09-28T16:16:46.623Z,14.88
2022-09-28T16:19:24.903Z,14.90
2022-09-28T16:21:57.094Z,14.84
2022-09-28T16:24:33.096Z,14.79
2022-09-28T16:27:07.034Z,14.81
2022-09-28T16:29:40.622Z,14.74
2022-09-28T16:32:41.981Z,14.59
2022-09-28T16:35:23.677Z,14.52
2022-09-28T16:38:10.921Z,14.55
2022-09-28T16:40:48.168Z,14.63
2022-09-28T16:43:27.231Z,14.59
2022-09-28T16:46:00.929Z,14.50
2022-09-28T16:48:35.918Z,14.51
2022-09-28T16:51:07.566Z,14.38
2022-09-28T16:53:56.493Z,14.12
2022-09-28T16:56:29.505Z,13.97
2022-09-28T16:59:01.502Z,13.84
2022-09-28T17:01:33.235Z,13.76
2022-09-28T17:04:05.396Z,13.64
2022-09-28T17:06:37.000Z,13.49
2022-09-28T17:09:10.763Z,13.45
2022-09-28T17:11:41.906Z,13.32
2022-09-28T17:14:14.324Z,13.18
2022-09-28T17:19:37.909Z,13.07
2022-09-28T17:22:09.464Z,13.04
2022-09-28T17:24:40.699Z,12.89
2022-09-28T17:27:18.161Z,12.80
2022-09-28T17:29:49.389Z,12.83
2022-09-28T17:32:22.058Z,12.85
2022-09-28T17:35:06.576Z,12.71
2022-09-28T17:37:45.369Z,12.56
2022-09-28T17:40:22.839Z,12.53
2022-09-28T17:42:56.316Z,12.54
2022-09-28T17:45:31.574Z,12.49
2022-09-28T17:48:03.214Z,12.39
2022-09-28T17:50:36.324Z,12.33
2022-09-28T17:53:07.667Z,12.40
2022-09-28T17:55:40.344Z,12.42
2022-09-28T17:58:18.434Z,12.38
2022-09-28T18:00:51.585Z,12.30
2022-09-28T18:03:24.656Z,12.32
2022-09-28T18:06:03.774Z,12.35
2022-09-28T18:08:35.983Z,12.23
2022-09-28T18:11:07.804Z,12.25
2022-09-28T18:13:39.302Z,12.05
2022-09-28T18:16:11.499Z,11.92
2022-09-28T18:18:42.973Z,11.88
2022-09-28T18:21:14.481Z,11.82
2022-09-28T18:23:45.924Z,11.83
2022-09-28T18:26:19.856Z,11.85
2022-09-28T18:28:55.122Z,11.86
2022-09-28T18:31:28.130Z,11.77
2022-09-28T18:34:02.208Z,11.67
2022-09-28T18:36:36.708Z,11.58
2022-09-28T18:39:09.427Z,11.57
2022-09-28T18:41:40.862Z,11.44
2022-09-28T18:44:12.850Z,11.46
2022-09-28T18:46:45.338Z,11.50
2022-09-28T18:49:16.800Z,11.48
2022-09-28T18:51:48.281Z,11.51
2022-09-28T18:54:21.303Z,11.57
2022-09-28T18:56:56.047Z,11.46
2022-09-28T18:59:27.941Z,11.44
2022-09-28T19:02:01.752Z,11.38
2022-09-28T19:04:33.214Z,11.38
2022-09-28T19:07:04.553Z,11.41
2022-09-28T19:09:36.225Z,11.58
2022-09-28T19:12:07.673Z,11.63
2022-09-28T19:14:39.406Z,11.58
2022-09-28T19:17:11.558Z,11.53
2022-09-28T19:19:43.376Z,11.54
2022-09-28T19:22:15.401Z,11.38
2022-09-28T19:24:47.236Z,11.26
2022-09-28T19:27:18.557Z,11.17
2022-09-28T19:29:50.625Z,11.19
2022-09-28T19:32:21.992Z,11.34
2022-09-28T19:34:53.288Z,11.37
2022-09-28T19:37:24.975Z,11.31
2022-09-28T19:39:56.248Z,11.31
2022-09-28T19:42:27.852Z,11.27
2022-09-28T19:44:59.339Z,11.37
2022-09-28T19:47:31.926Z,11.35
2022-09-28T19:50:03.688Z,11.32
2022-09-28T19:52:34.994Z,11.32
2022-09-28T19:55:06.747Z,11.29
2022-09-28T19:57:38.468Z,11.38
2022-09-28T20:00:13.304Z,11.41
2022-09-28T20:02:44.481Z,11.42
2022-09-28T20:05:15.792Z,11.57
2022-09-28T20:07:47.376Z,11.77
2022-09-28T20:10:19.205Z,11.66
2022-09-28T20:12:50.399Z,11.52
2022-09-28T20:15:22.576Z,11.45
2022-09-28T20:17:54.330Z,11.38
2022-09-28T20:20:27.045Z,11.38
2022-09-28T20:22:58.969Z,11.46
2022-09-28T20:25:30.419Z,11.43
2022-09-28T20:28:01.657Z,11.29
2022-09-28T20:30:33.411Z,11.22
2022-09-28T20:33:04.865Z,11.36
2022-09-28T20:35:37.371Z,11.44
2022-09-28T20:38:09.367Z,11.42
2022-09-28T20:40:41.299Z,11.55
2022-09-28T20:43:12.509Z,11.55
2022-09-28T20:45:44.339Z,11.58
2022-09-28T20:48:15.565Z,11.60
2022-09-28T20:50:46.812Z,11.64
2022-09-28T20:53:17.910Z,11.55
2022-09-28T20:55:49.024Z,11.47
2022-09-28T20:58:20.279Z,11.38
2022-09-28T21:00:51.377Z,11.31
2022-09-28T21:03:22.850Z,11.38
2022-09-28T21:05:55.707Z,11.38
2022-09-28T21:08:27.373Z,11.42
2022-09-28T21:10:59.165Z,11.47
2022-09-28T21:13:30.442Z,11.48
2022-09-28T21:16:04.753Z,11.45
2022-09-28T21:18:35.980Z,11.47
2022-09-28T21:21:09.205Z,11.44
2022-09-28T21:23:40.743Z,11.47
2022-09-28T21:26:13.819Z,11.50
2022-09-28T21:28:46.236Z,11.53
2022-09-28T21:31:17.427Z,11.43
2022-09-28T21:33:49.046Z,11.40
2022-09-28T21:36:20.561Z,11.55
2022-09-28T21:38:51.714Z,11.54
2022-09-28T21:41:23.173Z,11.54
2022-09-28T21:43:54.353Z,11.36
2022-09-28T21:46:27.140Z,11.24
2022-09-28T21:48:58.364Z,11.32
2022-09-28T21:51:29.592Z,11.27
2022-09-28T21:54:00.837Z,11.31
2022-09-28T21:56:32.676Z,11.24
2022-09-28T21:59:04.579Z,11.18
2022-09-28T22:01:36.046Z,11.09
2022-09-28T22:04:07.393Z,11.14
2022-09-28T22:06:38.602Z,11.14
2022-09-28T22:09:10.291Z,11.12
2022-09-28T22:11:41.760Z,11.08
2022-09-28T22:14:15.877Z,11.04
2022-09-28T22:16:47.239Z,10.97
2022-09-28T22:19:18.554Z,10.96
2022-09-28T22:21:49.787Z,10.86
2022-09-28T22:24:21.138Z,10.87
2022-09-28T22:26:52.364Z,10.84
2022-09-28T22:29:24.195Z,10.78
2022-09-28T22:32:02.344Z,10.79
2022-09-28T22:34:33.749Z,10.79
2022-09-28T22:37:05.850Z,10.89
2022-09-28T22:39:37.993Z,10.89
2022-09-28T22:42:09.935Z,10.75
2022-09-28T22:44:41.034Z,10.68
2022-09-28T22:47:12.627Z,10.69
2022-09-28T22:49:44.484Z,10.74
2022-09-28T22:52:16.461Z,10.57
2022-09-28T22:54:48.261Z,10.56
2022-09-28T22:57:19.710Z,10.50
2022-09-28T22:59:50.974Z,10.38
2022-09-28T23:02:22.635Z,10.30
2022-09-28T23:04:53.933Z,10.40
2022-09-28T23:07:26.678Z,10.62
2022-09-28T23:10:00.252Z,10.71
2022-09-28T23:12:33.623Z,10.59
2022-09-28T23:15:05.077Z,10.47
2022-09-28T23:17:36.221Z,10.60
2022-09-28T23:20:08.648Z,10.59
2022-09-28T23:22:39.851Z,10.55
2022-09-28T23:25:11.924Z,10.57
2022-09-28T23:27:45.644Z,10.47
2022-09-28T23:30:18.446Z,10.36
2022-09-28T23:32:49.938Z,10.43
2022-09-28T23:35:21.743Z,10.41
2022-09-28T23:37:56.158Z,10.28
2022-09-28T23:40:28.122Z,10.26
2022-09-28T23:42:59.279Z,10.32
2022-09-28T23:45:30.361Z,10.28
2022-09-28T23:48:01.576Z,10.30
2022-09-28T23:50:32.846Z,10.24
2022-09-28T23:53:04.215Z,10.29
2022-09-28T23:55:35.810Z,10.23
2022-09-28T23:58:06.985Z,10.20
